sensor_id;sensor_type;location;lat;lon;timestamp;pressure;altitude;pressure_sealevel;temperature;humidity
57799;BME280;43626;53.866;30.298;2023-06-05T00:01:50;1029.4;;;10.7;53.7
57799;BME280;43626;53.866;30.298;2023-06-05T00:06:46;1029.4;;;10.7;53.7
57799;BME280;43626;53.866;30.298;2023-06-05T00:11:58;1029.3;;;10.8;53.7
57799;BME280;43626;53.866;30.298;2023-06-05T00:17:12;1029.3;;;10.8;53.8
57799;BME280;43626;53.866;30.298;2023-06-05T00:21:38;1029.3;;;10.8;54.2
57799;BME280;43626;53.866;30.298;2023-06-05T00:26:38;1029.4;;;10.7;54.3
57799;BME280;43626;53.866;30.298;2023-06-05T00:32:06;1029.4;;;10.7;54.4
57799;BME280;43626;53.866;30.298;2023-06-05T00:37:10;1029.3;;;10.7;54.5
57799;BME280;43626;53.866;30.298;2023-06-05T00:41:40;1029.3;;;10.7;54.5
57799;BME280;43626;53.866;30.298;2023-06-05T00:46:56;1029.3;;;10.7;54.4
57799;BME280;43626;53.866;30.298;2023-06-05T00:51:58;1029.2;;;10.8;54.2
57799;BME280;43626;53.866;30.298;2023-06-05T00:57:18;1029.2;;;10.8;54.1
57799;BME280;43626;53.866;30.298;2023-06-05T01:01:50;1029.2;;;10.8;53.9
57799;BME280;43626;53.866;30.298;2023-06-05T01:06:56;1029.3;;;10.7;53.8
57799;BME280;43626;53.866;30.298;2023-06-05T01:11:40;1029.3;;;10.7;53.8
57799;BME280;43626;53.866;30.298;2023-06-05T01:16:38;1029.2;;;10.6;54
57799;BME280;43626;53.866;30.298;2023-06-05T01:21:46;1029.2;;;10.6;54.3
57799;BME280;43626;53.866;30.298;2023-06-05T01:26:59;1029.2;;;10.5;54.4
57799;BME280;43626;53.866;30.298;2023-06-05T01:31:46;1029.2;;;10.4;54.4
57799;BME280;43626;53.866;30.298;2023-06-05T01:36:38;1029.1;;;10.4;54.4
57799;BME280;43626;53.866;30.298;2023-06-05T01:41:53;1029.1;;;10.3;54.6
57799;BME280;43626;53.866;30.298;2023-06-05T01:46:58;1029.1;;;10.3;54.7
57799;BME280;43626;53.866;30.298;2023-06-05T01:51:38;1029.1;;;10.3;54.5
57799;BME280;43626;53.866;30.298;2023-06-05T01:56:38;1029.2;;;10.2;54.5
57799;BME280;43626;53.866;30.298;2023-06-05T02:01:44;1029.2;;;10.2;54.4
57799;BME280;43626;53.866;30.298;2023-06-05T02:06:48;1029.2;;;10.1;54.5
57799;BME280;43626;53.866;30.298;2023-06-05T02:12:00;1029.2;;;10.1;54.6
57799;BME280;43626;53.866;30.298;2023-06-05T02:16:50;1029.2;;;10.1;54.9
57799;BME280;43626;53.866;30.298;2023-06-05T02:21:54;1029.3;;;10.1;55.2
57799;BME280;43626;53.866;30.298;2023-06-05T02:26:58;1029.3;;;10.1;55.2
57799;BME280;43626;53.866;30.298;2023-06-05T02:31:54;1029.3;;;10;55.3
57799;BME280;43626;53.866;30.298;2023-06-05T02:36:38;1029.3;;;10;55.1
57799;BME280;43626;53.866;30.298;2023-06-05T02:41:48;1029.3;;;10;55.2
57799;BME280;43626;53.866;30.298;2023-06-05T02:47:00;1029.2;;;10;55.3
57799;BME280;43626;53.866;30.298;2023-06-05T02:51:48;1029.2;;;10.1;55.5
57799;BME280;43626;53.866;30.298;2023-06-05T02:56:38;1029.3;;;10.1;55.5
57799;BME280;43626;53.866;30.298;2023-06-05T03:01:52;1029.3;;;10.2;55.4
57799;BME280;43626;53.866;30.298;2023-06-05T03:06:58;1029.3;;;10.3;55.2
57799;BME280;43626;53.866;30.298;2023-06-05T03:12:00;1029.3;;;10.4;55.1
57799;BME280;43626;53.866;30.298;2023-06-05T03:17:00;1029.4;;;10.4;54.9
57799;BME280;43626;53.866;30.298;2023-06-05T03:21:50;1029.4;;;10.5;54.8
57799;BME280;43626;53.866;30.298;2023-06-05T03:27:00;1029.4;;;10.7;54.5
57799;BME280;43626;53.866;30.298;2023-06-05T03:32:00;1029.4;;;10.7;54.1
57799;BME280;43626;53.866;30.298;2023-06-05T03:37:06;1029.4;;;10.8;53.7
57799;BME280;43626;53.866;30.298;2023-06-05T03:41:38;1029.4;;;10.9;53.5
57799;BME280;43626;53.866;30.298;2023-06-05T03:47:00;1029.4;;;10.9;53.4
57799;BME280;43626;53.866;30.298;2023-06-05T03:51:50;1029.3;;;11;53
57799;BME280;43626;53.866;30.298;2023-06-05T03:56:38;1029.3;;;11.1;52.8
57799;BME280;43626;53.866;30.298;2023-06-05T04:01:44;1029.3;;;11.2;52.6
57799;BME280;43626;53.866;30.298;2023-06-05T04:06:58;1029.4;;;11.3;52.6
57799;BME280;43626;53.866;30.298;2023-06-05T04:11:50;1029.4;;;11.4;52.6
57799;BME280;43626;53.866;30.298;2023-06-05T04:16:39;1029.4;;;11.4;52.4
57799;BME280;43626;53.866;30.298;2023-06-05T04:21:54;1029.4;;;11.4;52.4
57799;BME280;43626;53.866;30.298;2023-06-05T04:27:06;1029.4;;;11.5;52.3
57799;BME280;43626;53.866;30.298;2023-06-05T04:31:50;1029.3;;;11.5;52.4
57799;BME280;43626;53.866;30.298;2023-06-05T04:36:42;1029.4;;;11.6;52.5
57799;BME280;43626;53.866;30.298;2023-06-05T04:41:52;1029.3;;;11.7;52.5
57799;BME280;43626;53.866;30.298;2023-06-05T04:47:00;1029.4;;;11.9;52.4
57799;BME280;43626;53.866;30.298;2023-06-05T04:52:00;1029.4;;;12;52.1
57799;BME280;43626;53.866;30.298;2023-06-05T04:57:18;1029.4;;;12.2;52.4
57799;BME280;43626;53.866;30.298;2023-06-05T05:01:42;1029.4;;;12.4;52.4
57799;BME280;43626;53.866;30.298;2023-06-05T05:06:38;1029.4;;;12.6;52.4
57799;BME280;43626;53.866;30.298;2023-06-05T05:11:50;1029.4;;;12.8;52.3
57799;BME280;43626;53.866;30.298;2023-06-05T05:16:38;1029.3;;;13;52.2
57799;BME280;43626;53.866;30.298;2023-06-05T05:21:38;1029.4;;;13.3;52
57799;BME280;43626;53.866;30.298;2023-06-05T05:26:56;1029.4;;;13.4;50.4
57799;BME280;43626;53.866;30.298;2023-06-05T05:32:00;1029.4;;;13.6;48.3
57799;BME280;43626;53.866;30.298;2023-06-05T05:36:48;1029.4;;;13.8;47.4
57799;BME280;43626;53.866;30.298;2023-06-05T05:41:42;1029.4;;;14.1;46.2
57799;BME280;43626;53.866;30.298;2023-06-05T05:46:46;1029.4;;;14.4;45.4
57799;BME280;43626;53.866;30.298;2023-06-05T05:51:39;1029.4;;;14.7;44.7
57799;BME280;43626;53.866;30.298;2023-06-05T05:56:38;1029.4;;;15;44.4
57799;BME280;43626;53.866;30.298;2023-06-05T06:02:20;1029.4;;;15.3;43.9
57799;BME280;43626;53.866;30.298;2023-06-05T06:07:01;1029.4;;;15.7;43.4
57799;BME280;43626;53.866;30.298;2023-06-05T06:11:48;1029.4;;;16;43
57799;BME280;43626;53.866;30.298;2023-06-05T06:16:49;1029.3;;;16.2;42.1
57799;BME280;43626;53.866;30.298;2023-06-05T06:21:42;1029.3;;;16.3;41.3
57799;BME280;43626;53.866;30.298;2023-06-05T06:26:46;1029.3;;;16.2;40
57799;BME280;43626;53.866;30.298;2023-06-05T06:32:00;1029.3;;;16.3;40.2
57799;BME280;43626;53.866;30.298;2023-06-05T06:36:38;1029.3;;;16.4;39.9
57799;BME280;43626;53.866;30.298;2023-06-05T06:41:52;1029.2;;;16.6;38.6
57799;BME280;43626;53.866;30.298;2023-06-05T06:46:48;1029.2;;;16.9;38.7
57799;BME280;43626;53.866;30.298;2023-06-05T06:51:50;1029.2;;;17.1;38.7
57799;BME280;43626;53.866;30.298;2023-06-05T06:56:38;1029.2;;;17.3;38.8
57799;BME280;43626;53.866;30.298;2023-06-05T07:02:09;1029.3;;;17.4;38.6
57799;BME280;43626;53.866;30.298;2023-06-05T07:06:57;1029.3;;;17.5;38.2
57799;BME280;43626;53.866;30.298;2023-06-05T07:11:38;1029.3;;;17.7;38.2
57799;BME280;43626;53.866;30.298;2023-06-05T07:16:56;1029.2;;;17.8;37.2
57799;BME280;43626;53.866;30.298;2023-06-05T07:21:59;1029.2;;;17.9;36.5
57799;BME280;43626;53.866;30.298;2023-06-05T07:27:10;1029.2;;;18.1;36.1
57799;BME280;43626;53.866;30.298;2023-06-05T07:31:51;1029.2;;;18.3;35.9
57799;BME280;43626;53.866;30.298;2023-06-05T07:36:38;1029.2;;;18.5;35.4
57799;BME280;43626;53.866;30.298;2023-06-05T07:41:54;1029.2;;;18.7;34
57799;BME280;43626;53.866;30.298;2023-06-05T07:47:10;1029.1;;;18.9;34.2
57799;BME280;43626;53.866;30.298;2023-06-05T07:52:03;1029.1;;;19.1;34
57799;BME280;43626;53.866;30.298;2023-06-05T07:56:50;1029.1;;;19.2;33.4
57799;BME280;43626;53.866;30.298;2023-06-05T08:01:42;1029;;;19.4;33.1
57799;BME280;43626;53.866;30.298;2023-06-05T08:07:01;1029;;;19.7;32.8
57799;BME280;43626;53.866;30.298;2023-06-05T08:12:03;1029;;;19.8;32
57799;BME280;43626;53.866;30.298;2023-06-05T08:16:38;1029;;;19.8;30.7
57799;BME280;43626;53.866;30.298;2023-06-05T08:21:56;1028.9;;;20;30.2
57799;BME280;43626;53.866;30.298;2023-06-05T08:26:50;1029;;;20.1;29.8
57799;BME280;43626;53.866;30.298;2023-06-05T08:32:00;1029;;;20.2;29.3
57799;BME280;43626;53.866;30.298;2023-06-05T08:37:06;1029;;;20.5;29.2
57799;BME280;43626;53.866;30.298;2023-06-05T08:41:38;1029;;;20.7;29.9
57799;BME280;43626;53.866;30.298;2023-06-05T08:46:38;1029.1;;;21;30.1
57799;BME280;43626;53.866;30.298;2023-06-05T08:52:05;1029.1;;;21.1;30
57799;BME280;43626;53.866;30.298;2023-06-05T08:56:54;1029.1;;;20.6;30.6
57799;BME280;43626;53.866;30.298;2023-06-05T09:01:54;1029.2;;;20.1;31.1
57799;BME280;43626;53.866;30.298;2023-06-05T09:07:02;1029.1;;;19.8;31.4
57799;BME280;43626;53.866;30.298;2023-06-05T09:12:16;1029.1;;;19.6;31.3
57799;BME280;43626;53.866;30.298;2023-06-05T09:16:54;1029.1;;;19.5;31.4
57799;BME280;43626;53.866;30.298;2023-06-05T09:22:06;1029;;;19.8;31.8
57799;BME280;43626;53.866;30.298;2023-06-05T09:27:01;1029;;;20.1;30.1
57799;BME280;43626;53.866;30.298;2023-06-05T09:31:40;1028.9;;;20.1;29.5
57799;BME280;43626;53.866;30.298;2023-06-05T09:36:51;1028.9;;;20;29.9
57799;BME280;43626;53.866;30.298;2023-06-05T09:41:43;1028.9;;;20;30.6
57799;BME280;43626;53.866;30.298;2023-06-05T09:46:55;1028.9;;;20;30.8
57799;BME280;43626;53.866;30.298;2023-06-05T09:51:38;1028.9;;;20;30.4
57799;BME280;43626;53.866;30.298;2023-06-05T09:56:39;1028.8;;;19.9;30.3
57799;BME280;43626;53.866;30.298;2023-06-05T10:01:42;1028.8;;;19.8;30.1
57799;BME280;43626;53.866;30.298;2023-06-05T10:07:01;1028.8;;;19.7;30.3
57799;BME280;43626;53.866;30.298;2023-06-05T10:11:51;1028.7;;;19.7;30.1
57799;BME280;43626;53.866;30.298;2023-06-05T10:17:25;1028.7;;;19.8;30.5
57799;BME280;43626;53.866;30.298;2023-06-05T10:22:05;1028.6;;;20.3;30.5
57799;BME280;43626;53.866;30.298;2023-06-05T10:27:15;1028.6;;;20.8;29.2
57799;BME280;43626;53.866;30.298;2023-06-05T10:31:51;1028.6;;;21;28.4
57799;BME280;43626;53.866;30.298;2023-06-05T10:37:11;1028.6;;;20.9;28.2
57799;BME280;43626;53.866;30.298;2023-06-05T10:41:55;1028.6;;;20.9;28.7
57799;BME280;43626;53.866;30.298;2023-06-05T10:46:51;1028.5;;;21;28.8
57799;BME280;43626;53.866;30.298;2023-06-05T10:51:51;1028.5;;;21.1;28.8
57799;BME280;43626;53.866;30.298;2023-06-05T10:57:07;1028.4;;;21;28.5
57799;BME280;43626;53.866;30.298;2023-06-05T11:02:21;1028.4;;;20.9;28.8
57799;BME280;43626;53.866;30.298;2023-06-05T11:07:19;1028.4;;;20.9;28.3
57799;BME280;43626;53.866;30.298;2023-06-05T11:11:54;1028.4;;;21;28.4
57799;BME280;43626;53.866;30.298;2023-06-05T11:17:25;1028.4;;;21.1;28
57799;BME280;43626;53.866;30.298;2023-06-05T11:22:10;1028.3;;;21;28.4
57799;BME280;43626;53.866;30.298;2023-06-05T11:27:01;1028.4;;;21;28.4
57799;BME280;43626;53.866;30.298;2023-06-05T11:31:39;1028.3;;;21;28.5
57799;BME280;43626;53.866;30.298;2023-06-05T11:36:39;1028.3;;;21;28.7
57799;BME280;43626;53.866;30.298;2023-06-05T11:41:57;1028.3;;;21.4;28.2
57799;BME280;43626;53.866;30.298;2023-06-05T11:46:39;1028.2;;;21.8;27.9
57799;BME280;43626;53.866;30.298;2023-06-05T11:52:03;1028.2;;;22.1;27.1
57799;BME280;43626;53.866;30.298;2023-06-05T11:56:45;1028.2;;;22.1;26.6
57799;BME280;43626;53.866;30.298;2023-06-05T12:01:57;1028.2;;;22;26.4
57799;BME280;43626;53.866;30.298;2023-06-05T12:06:39;1028.2;;;21.6;26.7
57799;BME280;43626;53.866;30.298;2023-06-05T12:12:11;1028.2;;;21.4;27.2
57799;BME280;43626;53.866;30.298;2023-06-05T12:16:51;1028.1;;;21.7;26.2
57799;BME280;43626;53.866;30.298;2023-06-05T12:22:05;1028.2;;;21.9;26.8
57799;BME280;43626;53.866;30.298;2023-06-05T12:26:54;1028.2;;;22.2;26.8
57799;BME280;43626;53.866;30.298;2023-06-05T12:32:24;1028.1;;;22.2;26.7
57799;BME280;43626;53.866;30.298;2023-06-05T12:36:39;1028.1;;;22.2;26.7
57799;BME280;43626;53.866;30.298;2023-06-05T12:41:51;1028.1;;;22.1;26.8
57799;BME280;43626;53.866;30.298;2023-06-05T12:46:51;1028.1;;;22.2;26.7
57799;BME280;43626;53.866;30.298;2023-06-05T12:52:09;1028;;;22.4;26.1
57799;BME280;43626;53.866;30.298;2023-06-05T12:56:39;1028;;;22.4;25.9
57799;BME280;43626;53.866;30.298;2023-06-05T13:01:39;1028;;;22.2;26
57799;BME280;43626;53.866;30.298;2023-06-05T13:07:03;1028;;;22;26.6
57799;BME280;43626;53.866;30.298;2023-06-05T13:12:09;1027.9;;;22;26.4
57799;BME280;43626;53.866;30.298;2023-06-05T13:16:51;1027.9;;;22;26.5
57799;BME280;43626;53.866;30.298;2023-06-05T13:21:55;1027.8;;;22.2;26.3
57799;BME280;43626;53.866;30.298;2023-06-05T13:26:51;1027.8;;;22.6;26
57799;BME280;43626;53.866;30.298;2023-06-05T13:32:09;1027.8;;;22.4;26
57799;BME280;43626;53.866;30.298;2023-06-05T13:36:39;1027.7;;;22.3;26.1
57799;BME280;43626;53.866;30.298;2023-06-05T13:41:39;1027.7;;;22.4;26.1
57799;BME280;43626;53.866;30.298;2023-06-05T13:47:03;1027.7;;;22.9;25.3
57799;BME280;43626;53.866;30.298;2023-06-05T13:52:11;1027.6;;;23.2;24.1
57799;BME280;43626;53.866;30.298;2023-06-05T13:56:39;1027.6;;;23;24.7
57799;BME280;43626;53.866;30.298;2023-06-05T14:01:39;1027.6;;;22.8;24.9
57799;BME280;43626;53.866;30.298;2023-06-05T14:06:39;1027.6;;;22.7;25.1
57799;BME280;43626;53.866;30.298;2023-06-05T14:12:09;1027.6;;;23.3;25
57799;BME280;43626;53.866;30.298;2023-06-05T14:16:51;1027.5;;;23.3;24.8
57799;BME280;43626;53.866;30.298;2023-06-05T14:21:39;1027.5;;;23.6;24.5
57799;BME280;43626;53.866;30.298;2023-06-05T14:26:39;1027.5;;;23.4;24.5
57799;BME280;43626;53.866;30.298;2023-06-05T14:32:09;1027.5;;;23.1;24.9
57799;BME280;43626;53.866;30.298;2023-06-05T14:36:39;1027.4;;;22.9;24.5
57799;BME280;43626;53.866;30.298;2023-06-05T14:42:09;1027.4;;;22.7;24.9
57799;BME280;43626;53.866;30.298;2023-06-05T14:47:09;1027.4;;;22.6;25.5
57799;BME280;43626;53.866;30.298;2023-06-05T14:52:09;1027.4;;;22.4;25.8
57799;BME280;43626;53.866;30.298;2023-06-05T14:56:39;1027.4;;;22.3;25.5
57799;BME280;43626;53.866;30.298;2023-06-05T15:01:43;1027.3;;;22.2;26
57799;BME280;43626;53.866;30.298;2023-06-05T15:06:39;1027.3;;;22.2;26.1
57799;BME280;43626;53.866;30.298;2023-06-05T15:12:09;1027.3;;;22.1;26.2
57799;BME280;43626;53.866;30.298;2023-06-05T15:16:39;1027.3;;;22.1;26.4
57799;BME280;43626;53.866;30.298;2023-06-05T15:22:09;1027.3;;;22.7;26.2
57799;BME280;43626;53.866;30.298;2023-06-05T15:27:01;1027.2;;;23.8;25.4
57799;BME280;43626;53.866;30.298;2023-06-05T15:32:09;1027.2;;;24.4;24.9
57799;BME280;43626;53.866;30.298;2023-06-05T15:36:39;1027.2;;;24.9;23.9
57799;BME280;43626;53.866;30.298;2023-06-05T15:41:55;1027.2;;;25.3;22.4
57799;BME280;43626;53.866;30.298;2023-06-05T15:47:03;1027.2;;;25.4;22.2
57799;BME280;43626;53.866;30.298;2023-06-05T15:52:23;1027.2;;;25.7;22
57799;BME280;43626;53.866;30.298;2023-06-05T15:57:09;1027.2;;;26.3;20.8
57799;BME280;43626;53.866;30.298;2023-06-05T16:01:43;1027.2;;;26.4;20.4
57799;BME280;43626;53.866;30.298;2023-06-05T16:06:39;1027.2;;;26.7;20.7
57799;BME280;43626;53.866;30.298;2023-06-05T16:12:11;1027.2;;;26.9;21
57799;BME280;43626;53.866;30.298;2023-06-05T16:16:45;1027.1;;;27.3;20.6
57799;BME280;43626;53.866;30.298;2023-06-05T16:21:55;1027.1;;;27.2;20.6
57799;BME280;43626;53.866;30.298;2023-06-05T16:26:39;1027.1;;;26.7;20.9
57799;BME280;43626;53.866;30.298;2023-06-05T16:32:09;1027.1;;;27;20.8
57799;BME280;43626;53.866;30.298;2023-06-05T16:36:39;1027.1;;;26.4;21
57799;BME280;43626;53.866;30.298;2023-06-05T16:41:55;1027.2;;;25.4;21.5
57799;BME280;43626;53.866;30.298;2023-06-05T16:47:23;1027.2;;;25.4;21.6
57799;BME280;43626;53.866;30.298;2023-06-05T16:52:07;1027.2;;;25.8;21.4
57799;BME280;43626;53.866;30.298;2023-06-05T16:56:55;1027.2;;;25.6;21.6
57799;BME280;43626;53.866;30.298;2023-06-05T17:01:55;1027.2;;;25.5;22
57799;BME280;43626;53.866;30.298;2023-06-05T17:07:21;1027.3;;;25.8;21.8
57799;BME280;43626;53.866;30.298;2023-06-05T17:12:07;1027.3;;;26.3;21.7
57799;BME280;43626;53.866;30.298;2023-06-05T17:16:55;1027.2;;;26.4;21.6
57799;BME280;43626;53.866;30.298;2023-06-05T17:22:01;1027.3;;;26.3;21.6
57799;BME280;43626;53.866;30.298;2023-06-05T17:27:21;1027.3;;;26.2;21.7
57799;BME280;43626;53.866;30.298;2023-06-05T17:32:03;1027.3;;;26;21.9
57799;BME280;43626;53.866;30.298;2023-06-05T17:36:39;1027.3;;;25.8;22.5
57799;BME280;43626;53.866;30.298;2023-06-05T17:41:39;1027.3;;;25.4;23.1
57799;BME280;43626;53.866;30.298;2023-06-05T17:46:41;1027.3;;;25;23.9
57799;BME280;43626;53.866;30.298;2023-06-05T17:52:07;1027.3;;;24.3;25.1
57799;BME280;43626;53.866;30.298;2023-06-05T17:56:51;1027.4;;;23.5;26.4
57799;BME280;43626;53.866;30.298;2023-06-05T18:01:51;1027.4;;;23.2;27.2
57799;BME280;43626;53.866;30.298;2023-06-05T18:07:21;1027.5;;;23;27.2
57799;BME280;43626;53.866;30.298;2023-06-05T18:11:41;1027.6;;;22.5;28
57799;BME280;43626;53.866;30.298;2023-06-05T18:16:51;1027.7;;;21.8;28.9
57799;BME280;43626;53.866;30.298;2023-06-05T18:21:43;1027.8;;;21.3;29.8
57799;BME280;43626;53.866;30.298;2023-06-05T18:27:23;1027.9;;;20.8;30.6
57799;BME280;43626;53.866;30.298;2023-06-05T18:32:09;1027.9;;;20.4;31.7
57799;BME280;43626;53.866;30.298;2023-06-05T18:36:39;1028;;;20;33.4
57799;BME280;43626;53.866;30.298;2023-06-05T18:41:51;1028;;;19.6;34.1
57799;BME280;43626;53.866;30.298;2023-06-05T18:47:21;1028.1;;;19.4;34.7
57799;BME280;43626;53.866;30.298;2023-06-05T18:52:09;1028.2;;;19.2;35
57799;BME280;43626;53.866;30.298;2023-06-05T18:56:43;1028.3;;;19;35.5
57799;BME280;43626;53.866;30.298;2023-06-05T19:01:39;1028.4;;;18.8;35.4
57799;BME280;43626;53.866;30.298;2023-06-05T19:07:23;1028.4;;;18.6;35.4
57799;BME280;43626;53.866;30.298;2023-06-05T19:11:57;1028.5;;;18.5;35.5
57799;BME280;43626;53.866;30.298;2023-06-05T19:16:51;1028.6;;;18.4;35.6
57799;BME280;43626;53.866;30.298;2023-06-05T19:21:55;1028.6;;;18.2;35.7
57799;BME280;43626;53.866;30.298;2023-06-05T19:27:23;1028.7;;;18;36.4
57799;BME280;43626;53.866;30.298;2023-06-05T19:32:09;1028.7;;;17.9;36.7
57799;BME280;43626;53.866;30.298;2023-06-05T19:36:39;1028.8;;;17.9;36.8
57799;BME280;43626;53.866;30.298;2023-06-05T19:41:57;1028.8;;;17.8;37
57799;BME280;43626;53.866;30.298;2023-06-05T19:47:21;1028.8;;;17.7;37.2
57799;BME280;43626;53.866;30.298;2023-06-05T19:52:09;1028.8;;;17.7;37.1
57799;BME280;43626;53.866;30.298;2023-06-05T19:56:39;1028.9;;;17.5;37.2
57799;BME280;43626;53.866;30.298;2023-06-05T20:01:39;1028.9;;;17.5;37.4
57799;BME280;43626;53.866;30.298;2023-06-05T20:07:23;1028.9;;;17.4;37.5
57799;BME280;43626;53.866;30.298;2023-06-05T20:12:23;1029;;;17.3;37.5
57799;BME280;43626;53.866;30.298;2023-06-05T20:17:19;1029;;;17.2;37.7
57799;BME280;43626;53.866;30.298;2023-06-05T20:21:39;1029;;;17;38.1
57799;BME280;43626;53.866;30.298;2023-06-05T20:27:21;1029;;;16.9;38.3
57799;BME280;43626;53.866;30.298;2023-06-05T20:32:09;1029.1;;;16.8;38.3
57799;BME280;43626;53.866;30.298;2023-06-05T20:36:39;1029.1;;;16.7;38.5
57799;BME280;43626;53.866;30.298;2023-06-05T20:42:05;1029.1;;;16.5;38.7
57799;BME280;43626;53.866;30.298;2023-06-05T20:47:25;1029.2;;;16.3;38.7
57799;BME280;43626;53.866;30.298;2023-06-05T20:52:11;1029.2;;;16.2;38.8
57799;BME280;43626;53.866;30.298;2023-06-05T20:56:51;1029.3;;;16;39
57799;BME280;43626;53.866;30.298;2023-06-05T21:02:17;1029.4;;;16;39.1
57799;BME280;43626;53.866;30.298;2023-06-05T21:07:15;1029.4;;;15.9;39.1
57799;BME280;43626;53.866;30.298;2023-06-05T21:12:09;1029.4;;;15.8;39.3
57799;BME280;43626;53.866;30.298;2023-06-05T21:16:39;1029.5;;;15.8;39.7
57799;BME280;43626;53.866;30.298;2023-06-05T21:21:39;1029.5;;;15.7;40
57799;BME280;43626;53.866;30.298;2023-06-05T21:27:23;1029.5;;;15.5;40.2
57799;BME280;43626;53.866;30.298;2023-06-05T21:32:23;1029.6;;;15.4;40.4
57799;BME280;43626;53.866;30.298;2023-06-05T21:36:43;1029.6;;;15.4;40.5
57799;BME280;43626;53.866;30.298;2023-06-05T21:41:55;1029.6;;;15.4;40.3
57799;BME280;43626;53.866;30.298;2023-06-05T21:47:23;1029.6;;;15.3;40.3
57799;BME280;43626;53.866;30.298;2023-06-05T21:52:11;1029.6;;;15.2;40.3
57799;BME280;43626;53.866;30.298;2023-06-05T21:56:39;1029.7;;;15.2;40.3
57799;BME280;43626;53.866;30.298;2023-06-05T22:01:55;1029.7;;;15.1;40.4
57799;BME280;43626;53.866;30.298;2023-06-05T22:07:19;1029.7;;;15;40.9
57799;BME280;43626;53.866;30.298;2023-06-05T22:12:07;1029.8;;;14.9;41.1
57799;BME280;43626;53.866;30.298;2023-06-05T22:16:57;1029.8;;;14.9;41.1
57799;BME280;43626;53.866;30.298;2023-06-05T22:21:53;1029.8;;;14.8;41.1
57799;BME280;43626;53.866;30.298;2023-06-05T22:27:21;1029.8;;;14.8;41
57799;BME280;43626;53.866;30.298;2023-06-05T22:32:07;1029.7;;;14.8;40.8
57799;BME280;43626;53.866;30.298;2023-06-05T22:37:05;1029.8;;;14.8;40.8
57799;BME280;43626;53.866;30.298;2023-06-05T22:41:55;1029.7;;;14.8;40.8
57799;BME280;43626;53.866;30.298;2023-06-05T22:47:21;1029.7;;;14.8;40.8
57799;BME280;43626;53.866;30.298;2023-06-05T22:52:09;1029.7;;;14.8;40.8
57799;BME280;43626;53.866;30.298;2023-06-05T22:56:49;1029.7;;;14.7;41.1
57799;BME280;43626;53.866;30.298;2023-06-05T23:01:39;1029.7;;;14.6;41.5
57799;BME280;43626;53.866;30.298;2023-06-05T23:07:19;1029.7;;;14.5;42.2
57799;BME280;43626;53.866;30.298;2023-06-05T23:12:03;1029.8;;;14.3;42.6
57799;BME280;43626;53.866;30.298;2023-06-05T23:16:53;1029.8;;;14.2;42.8
57799;BME280;43626;53.866;30.298;2023-06-05T23:22:07;1029.9;;;14;42.9
57799;BME280;43626;53.866;30.298;2023-06-05T23:27:19;1029.9;;;13.9;43
57799;BME280;43626;53.866;30.298;2023-06-05T23:32:07;1029.9;;;13.8;43.2
57799;BME280;43626;53.866;30.298;2023-06-05T23:36:57;1029.9;;;13.7;43.4
57799;BME280;43626;53.866;30.298;2023-06-05T23:41:39;1029.9;;;13.7;43.4
57799;BME280;43626;53.866;30.298;2023-06-05T23:47:21;1029.9;;;13.6;43.9
57799;BME280;43626;53.866;30.298;2023-06-05T23:52:03;1029.9;;;13.5;44.2
57799;BME280;43626;53.866;30.298;2023-06-05T23:56:39;1029.9;;;13.5;44
